Предлагаем Вашему вниманию английскую версию страницы: AUTOTAF.ME UITT - aviation weather forecast Ust'-kut (Ust'-Kut)

AUTOTAF UITT - авиапрогноз Усть-Кут (Усть-Кут)

Сегодня рассвет 00:23 UTC, восход солнца 01:06 UTC,
местный полдень 05:09 UTC, заход солнца 09:12 UTC,
наступление темноты 09:56 UTC.

Краткий прогноз UITT на 9 часов

AUTOTAF.ME UITT 262000Z 2621/2706 VRB02MPS 1000 BR NSC     
  FM270300 VRB02MPS 5000 HZ NSC 
  FM270600 VRB02MPS CAVOK

Детальный прогноз UITT на 24 часа

AUTOTAF.ME UITT 262000Z 2621/2721 VRB02MPS 1000 BR FEW130 TXM29/2706Z TNM37/2715Z   
  FM270300 VRB02MPS 5000 HZ FEW120 
  FM270600 VRB02MPS 9999 FEW120 
  FM270900 VRB02MPS 0200 FG IC BKN006 
  FM271200 VRB02MPS 1000 BR BKN005 
  BECMG 2713/2715 BKN004   
  BECMG 2719/2721 BKN053

Подробный табличный прогноз

Время (UTC) miniAUTOTAF на 3 ч WX FZLVL
M AGL
ICE TURB Т
(°С)
Тd
(°С)
f(%) QNH
(гПа)
WIND/T
18 VRB02MPS 1000 BR OVC006 BR SFC -31 -34 73 1040 ...
21 VRB02MPS 1000 BR FEW130 BR SFC -32 -36 71 1040 ...
27.01.2021
00 VRB02MPS 1000 BR FEW130 BR SFC -33 -36 71 1042 ...
03 VRB02MPS 5000 HZ FEW120 HZ SFC -32 -36 66 1042 ...
06 VRB02MPS 9999 FEW120 SFC -29 -35 57 1040 ...
09 VRB02MPS 0200 FG IC BKN006 FG IC SFC -30 -35 67 1039 ...
12 VRB02MPS 1000 BR BKN005 BR SFC -34 -38 70 1038 ...
15 VRB02MPS 1000 BR BKN004 BR SFC -37 -41 69 1035 ...
18 VRB02MPS 1000 BR BKN004 BR SFC -37 -41 68 1032 ...
21 VRB02MPS 1000 BR BKN053 BR SFC -37 -40 69 1027 ...
28.01.2021
00 VRB02MPS 0900 FG IC BKN009 FG IC SFC MOD FL40/FL50 MOD FL40/FL50 -36 -39 67 1024 ...
03 VRB02MPS 9999 -SN OVC008 -SN SFC FBL FL50/FL70 MOD FL40/FL50 -33 -38 63 1019 ...
06 16003MPS 9999 -SN OVC007 -SN SFC MOD FL50/FL60 -27 -33 60 1015 ...
09 VRB02MPS 1000 SN BR OVC007 SN BR SFC FBL FL40/FL50 MOD FL40/FL50 -27 -30 73 1014 ...
12 28006G12MPS 9999 -SN OVC007 -SN SFC MOD FL40/FL50 -29 -32 74 1016 ...
15 28004MPS 9999 BKN110 SFC MOD FL40/FL50 -29 -33 74 1018 ...


Широта 56.85752°, долгота 105.73105°, высота 667 м абс.
Средняя высота рельефа местности 531 м абс.
Прогнозы обновляются четыре раза в сутки: в 02, 08, 14, 20 ч всемирного времени.


Выбрать прогноз по другой модели Усть-Кут (Усть-Кут)
Онлайн-сводка гроз по Усть-Кут (Усть-Кут) (для РФ и ближнего зарубежья)
Карта фактических гроз в окрестностях Усть-Кут (Усть-Кут)
Динамические прогностические карты (ventusky.com)
Прогностическая карта высоты нижней границы облаков по Усть-Кут (Усть-Кут) (windy.com)
Выбрать другой город

Прогноз предназначен для личного научно-познавательного использования частными лицами
и не предназначен для принятия важных решений и выполнения реальных полётов воздушных судов

При копировании или ином использовании любых материалов данного сайта ссылка на © meteocenter.asia обязательна.

0.64/1